Time;durP1;ratioP1;P1;durP2;ratioP2;P2;SDS_P1;SDS_P2;PMS_P1;PMS_P2;Temp;Humidity;BMP_temperature;BMP_pressure;BME280_temperature;BME280_humidity;BME280_pressure;Samples;Min_cycle;Max_cycle;Signal;HPM_P1;HPM_P2
2022/10/06 00:03:29;;;;;;;21.48;11.30;;;;;;;7.27;100.00;99700.88;4025782;87;21039;-87
2022/10/06 00:09:31;;;;;;;20.20;10.68;;;;;;;7.20;100.00;99708.81;4043135;87;21656;-86
2022/10/06 00:15:34;;;;;;;18.10;10.45;;;;;;;7.12;100.00;99711.61;4024569;86;21030;-86
2022/10/06 00:21:35;;;;;;;19.73;11.85;;;;;;;7.16;100.00;99718.77;4011802;87;21459;-86
2022/10/06 00:27:41;;;;;;;17.50;9.85;;;;;;;7.11;100.00;99720.91;4010143;86;21114;-86
2022/10/06 00:33:46;;;;;;;23.67;12.88;;;;;;;7.18;100.00;99719.23;4012686;89;20988;-86
2022/10/06 00:39:48;;;;;;;19.30;10.95;;;;;;;7.02;100.00;99723.70;4012545;87;21135;-86
2022/10/06 00:45:50;;;;;;;20.82;11.90;;;;;;;6.98;100.00;99724.15;4001412;87;21587;-86
2022/10/06 00:51:58;;;;;;;22.37;12.90;;;;;;;6.83;100.00;99730.77;3937798;89;21086;-86
2022/10/06 00:58:00;;;;;;;18.82;11.73;;;;;;;6.74;100.00;99736.81;3920987;89;21103;-86
2022/10/06 01:04:10;;;;;;;23.98;13.58;;;;;;;6.66;100.00;99734.95;3917835;89;21591;-85
2022/10/06 01:10:11;;;;;;;24.92;13.35;;;;;;;6.53;100.00;99746.31;3940542;87;21567;-85
2022/10/06 01:16:23;;;;;;;21.93;11.18;;;;;;;6.52;100.00;99758.33;3939682;89;21055;-88
2022/10/06 01:22:34;;;;;;;19.37;11.95;;;;;;;6.34;100.00;99763.66;3919457;89;21064;-85
2022/10/06 01:28:38;;;;;;;19.05;11.75;;;;;;;6.24;100.00;99764.81;3923927;89;21752;-86
2022/10/06 01:34:40;;;;;;;20.25;13.15;;;;;;;6.28;100.00;99777.17;3943417;89;21106;-87
2022/10/06 01:40:52;;;;;;;19.15;12.45;;;;;;;6.23;100.00;99783.59;3941960;90;21119;-86
2022/10/06 01:46:59;;;;;;;19.77;13.75;;;;;;;6.17;100.00;99794.42;3941674;87;21608;-87
2022/10/06 01:53:01;;;;;;;21.68;12.82;;;;;;;6.05;100.00;99791.61;4029973;87;21050;-85
2022/10/06 01:59:04;;;;;;;20.08;11.38;;;;;;;5.99;100.00;99786.67;4027592;87;21046;-86
2022/10/06 02:05:08;;;;;;;24.65;14.00;;;;;;;5.93;100.00;99790.14;4031979;87;21023;-86
2022/10/06 02:11:12;;;;;;;20.40;11.38;;;;;;;5.89;100.00;99784.30;4027755;87;21054;-86
2022/10/06 02:17:19;;;;;;;24.92;12.25;;;;;;;5.85;100.00;99794.23;4026120;87;20999;-86
2022/10/06 02:23:20;;;;;;;14.68;9.10;;;;;;;5.79;100.00;99782.72;4081107;87;21014;-86
2022/10/06 02:29:22;;;;;;;20.23;8.60;;;;;;;5.78;100.00;99799.34;4029589;86;22311;-86
2022/10/06 02:35:24;;;;;;;16.75;9.00;;;;;;;5.70;100.00;99794.73;4028673;87;21641;-86
2022/10/06 02:41:27;;;;;;;18.15;9.95;;;;;;;5.72;100.00;99796.54;4026130;87;21467;-86
2022/10/06 02:54:24;;;;;;;12.37;8.60;;;;;;;5.56;100.00;99798.97;4024555;87;51964;-85
2022/10/06 03:00:26;;;;;;;14.98;8.20;;;;;;;5.40;100.00;99800.61;4044237;86;21433;-86
2022/10/06 03:06:37;;;;;;;14.13;8.23;;;;;;;5.38;100.00;99795.25;4039638;86;21973;-85
2022/10/06 03:12:41;;;;;;;12.63;8.13;;;;;;;5.42;100.00;99801.66;4036356;87;21029;-85
2022/10/06 03:18:50;;;;;;;16.93;9.15;;;;;;;5.42;100.00;99803.79;4034656;87;21577;-86
2022/10/06 03:24:51;;;;;;;14.98;8.05;;;;;;;5.40;100.00;99809.31;4007178;88;21113;-87
2022/10/06 03:31:27;;;;;;;11.40;7.08;;;;;;;5.37;100.00;99804.52;4019277;87;21732;-86
2022/10/06 03:37:40;;;;;;;16.12;9.28;;;;;;;5.28;100.00;99809.17;4012160;88;21081;-86
2022/10/06 03:43:44;;;;;;;22.30;9.38;;;;;;;5.27;100.00;99812.98;4019637;88;21097;-86
2022/10/06 03:49:46;;;;;;;14.28;8.70;;;;;;;5.27;100.00;99818.41;4009630;86;21094;-86
2022/10/06 03:55:49;;;;;;;16.65;8.65;;;;;;;5.24;100.00;99814.98;3990357;88;21077;-85
2022/10/06 04:01:51;;;;;;;12.15;7.28;;;;;;;5.18;100.00;99808.93;4007757;87;21017;-86
2022/10/06 04:08:00;;;;;;;15.13;8.63;;;;;;;5.12;100.00;99810.77;3997117;87;21059;-85
2022/10/06 04:14:09;;;;;;;15.53;7.58;;;;;;;5.15;100.00;99817.72;4003883;87;21125;-85
2022/10/06 04:20:15;;;;;;;17.05;9.35;;;;;;;5.13;100.00;99813.16;4004714;87;21014;-86
2022/10/06 04:26:19;;;;;;;13.60;8.15;;;;;;;5.10;100.00;99823.30;3997382;86;21067;-86
2022/10/06 04:32:23;;;;;;;30.50;13.07;;;;;;;5.07;100.00;99821.22;4006043;87;21929;-86
2022/10/06 04:38:26;;;;;;;13.88;8.40;;;;;;;5.09;100.00;99821.68;4007593;88;21765;-87
2022/10/06 04:44:31;;;;;;;21.10;9.68;;;;;;;5.05;100.00;99834.84;4002941;87;21662;-87
2022/10/06 04:50:37;;;;;;;13.22;7.00;;;;;;;5.04;100.00;99835.42;4048039;86;21017;-86
2022/10/06 04:56:42;;;;;;;14.65;7.85;;;;;;;5.00;100.00;99839.06;4085409;86;21009;-86
2022/10/06 05:02:45;;;;;;;19.23;9.65;;;;;;;4.94;100.00;99837.08;4087632;86;21056;-87
2022/10/06 05:08:58;;;;;;;18.40;8.18;;;;;;;4.92;100.00;99839.88;4135144;86;20995;-85
2022/10/06 05:15:01;;;;;;;20.90;8.80;;;;;;;4.90;100.00;99844.27;4132752;86;20981;-85
2022/10/06 05:21:09;;;;;;;17.55;9.73;;;;;;;4.92;100.00;99850.16;4057205;86;20978;-87
2022/10/06 05:27:13;;;;;;;29.27;11.38;;;;;;;4.94;100.00;99855.27;4155865;81;21600;-86
2022/10/06 05:33:18;;;;;;;21.40;10.60;;;;;;;5.01;100.00;99860.48;4302643;82;21089;-86
2022/10/06 05:39:28;;;;;;;20.00;10.75;;;;;;;5.12;100.00;99855.55;4287419;82;20971;-86
2022/10/06 05:45:34;;;;;;;20.50;9.48;;;;;;;5.22;100.00;99866.07;4289993;82;20986;-86
2022/10/06 05:51:40;;;;;;;19.07;9.98;;;;;;;5.37;100.00;99864.26;4285340;82;21020;-88
2022/10/06 05:57:49;;;;;;;22.60;12.63;;;;;;;5.52;100.00;99874.62;4305453;82;21030;-85
2022/10/06 06:04:03;;;;;;;22.40;14.35;;;;;;;5.80;100.00;99874.52;4301714;81;21009;-86
2022/10/06 06:10:15;;;;;;;26.80;17.45;;;;;;;6.43;100.00;99892.22;4301512;82;21396;-86
2022/10/06 06:16:16;;;;;;;34.00;20.00;;;;;;;7.22;100.00;99898.52;4226940;82;20994;-86
2022/10/06 06:22:20;;;;;;;54.85;22.42;;;;;;;7.94;100.00;99909.78;4290030;82;20971;-87
2022/10/06 06:28:30;;;;;;;52.60;22.35;;;;;;;8.26;100.00;99920.48;4339848;80;20981;-87
2022/10/06 06:34:32;;;;;;;36.85;19.02;;;;;;;8.44;100.00;99941.57;4344169;81;21028;-87
2022/10/06 06:40:41;;;;;;;35.68;18.98;;;;;;;8.63;100.00;99943.98;4337682;81;21001;-86
2022/10/06 06:46:46;;;;;;;41.85;26.57;;;;;;;8.82;100.00;99946.16;4332426;80;21508;-86
2022/10/06 06:52:50;;;;;;;70.70;47.15;;;;;;;8.95;100.00;99954.59;4342328;81;21967;-86
2022/10/06 06:59:02;;;;;;;81.72;52.17;;;;;;;9.13;100.00;99966.91;4335202;81;21088;-86
2022/10/06 07:05:04;;;;;;;77.65;41.40;;;;;;;9.40;100.00;99967.55;4339556;81;21053;-86
2022/10/06 07:11:19;;;;;;;53.58;33.65;;;;;;;9.66;100.00;99983.02;4286925;81;21037;-86
2022/10/06 07:30:20;;;;;;;35.90;19.15;;;;;;;10.50;100.00;100008.73;4310731;81;21948;-86
2022/10/06 07:36:25;;;;;;;33.45;18.60;;;;;;;10.67;100.00;100012.52;4303532;82;21515;-86
2022/10/06 07:42:28;;;;;;;23.52;14.40;;;;;;;11.38;100.00;99999.23;4343234;81;22270;-86
2022/10/06 07:48:29;;;;;;;20.70;13.65;;;;;;;11.97;100.00;100010.22;4311652;80;21046;-86
2022/10/06 07:54:32;;;;;;;22.62;13.28;;;;;;;12.51;100.00;100017.80;4319747;80;21029;-86
2022/10/06 08:00:54;;;;;;;20.40;12.37;;;;;;;13.06;100.00;100017.86;4306031;81;21029;-86
2022/10/06 08:07:09;;;;;;;18.62;10.23;;;;;;;13.24;100.00;100025.04;4333200;81;21001;-86
2022/10/06 08:13:13;;;;;;;18.17;9.60;;;;;;;13.16;100.00;100042.00;4301081;81;20967;-86
2022/10/06 08:19:18;;;;;;;15.23;10.40;;;;;;;13.40;100.00;100050.45;4318505;81;21022;-86
2022/10/06 08:25:53;;;;;;;17.92;9.95;;;;;;;13.84;100.00;100052.92;4309082;82;21109;-84
2022/10/06 08:31:58;;;;;;;16.15;8.95;;;;;;;14.62;100.00;100054.19;4345048;80;21037;-86
2022/10/06 08:37:58;;;;;;;10.78;6.90;;;;;;;15.69;100.00;100056.23;4322254;80;20985;-86
2022/10/06 08:44:04;;;;;;;11.65;6.92;;;;;;;16.88;100.00;100067.89;4346031;81;21498;-86
2022/10/06 08:50:11;;;;;;;12.17;6.57;;;;;;;17.97;100.00;100083.23;4315368;81;21069;-86
2022/10/06 08:56:26;;;;;;;12.30;6.20;;;;;;;18.19;100.00;100076.46;4302248;81;22262;-86
2022/10/06 09:02:42;;;;;;;9.38;6.05;;;;;;;18.02;99.42;100081.45;4350208;82;20998;-87
2022/10/06 09:08:49;;;;;;;;;;;;;;;18.87;100.00;100081.19;4193265;83;21445;-87
2022/10/06 09:15:35;;;;;;;11.67;4.93;;;;;;;19.41;96.86;100077.09;4213827;83;20158;-87
2022/10/06 09:21:45;;;;;;;13.43;4.45;;;;;;;19.70;97.88;100079.06;4137119;84;21059;-87
2022/10/06 09:27:50;;;;;;;9.58;4.15;;;;;;;19.64;96.04;100087.02;4334234;80;22156;-87
2022/10/06 09:34:03;;;;;;;7.28;4.75;;;;;;;19.53;95.37;100096.66;4302823;81;21107;-86
2022/10/06 09:40:08;;;;;;;8.63;4.25;;;;;;;19.26;94.40;100097.02;4309613;81;21805;-86
2022/10/06 09:46:49;;;;;;;7.53;4.22;;;;;;;19.66;95.04;100093.56;4294466;81;21127;-87
2022/10/06 09:53:03;;;;;;;8.13;3.47;;;;;;;20.64;93.55;100091.19;4293939;81;21052;-87
2022/10/06 09:59:13;;;;;;;10.80;3.10;;;;;;;21.13;92.65;100106.48;4312308;81;21060;-87
2022/10/06 10:05:21;;;;;;;6.53;2.55;;;;;;;21.84;90.89;100115.37;4313734;80;21062;-87
2022/10/06 10:18:15;;;;;;;3.60;2.40;;;;;;;23.81;87.83;100113.48;4359938;82;21005;-84
2022/10/06 10:24:46;;;;;;;9.85;2.58;;;;;;;24.24;85.88;100098.59;4236876;83;21057;-85
2022/10/06 10:31:05;;;;;;;6.50;2.40;;;;;;;24.88;83.81;100118.63;4320715;80;21841;-87
2022/10/06 10:37:17;;;;;;;4.67;2.20;;;;;;;25.23;81.94;100118.19;4315434;81;20986;-86
2022/10/06 10:43:34;;;;;;;7.40;2.70;;;;;;;25.14;79.21;100111.03;4316284;80;21009;-85
2022/10/06 10:49:40;;;;;;;7.00;2.22;;;;;;;24.84;76.59;100115.13;4318731;81;20973;-84
2022/10/06 10:55:45;;;;;;;2.85;1.87;;;;;;;24.47;76.94;100115.16;4312457;81;21956;-86
2022/10/06 11:01:52;;;;;;;5.70;1.90;;;;;;;24.19;76.29;100113.13;4292076;80;21021;-84
2022/10/06 11:08:03;;;;;;;;;;;;;;;23.81;75.42;100121.08;4313818;81;21011;-84
2022/10/06 11:14:32;;;;;;;5.47;2.35;;;;;;;23.40;73.79;100123.69;4321216;81;20856;-84
2022/10/06 11:20:50;;;;;;;5.85;2.60;;;;;;;23.31;73.82;100126.27;4308899;81;21100;-86
2022/10/06 11:27:31;;;;;;;5.80;2.20;;;;;;;22.97;73.26;100127.36;4310138;81;21070;-87
2022/10/06 11:33:41;;;;;;;4.65;2.67;;;;;;;22.43;72.23;100134.42;4301440;81;21031;-85
2022/10/06 11:39:57;;;;;;;7.92;2.30;;;;;;;21.84;72.31;100134.88;4298242;81;21105;-88
2022/10/06 11:46:15;;;;;;;5.03;2.57;;;;;;;21.54;72.88;100127.96;4293886;81;21101;-87
2022/10/06 11:52:23;;;;;;;3.55;2.40;;;;;;;21.32;72.53;100121.92;4304972;81;21038;-87
2022/10/06 11:59:00;;;;;;;5.50;2.65;;;;;;;21.21;72.14;100124.67;4293025;80;21132;-88
2022/10/06 12:05:20;;;;;;;6.42;2.65;;;;;;;21.13;72.60;100123.19;4280488;82;21040;-88
2022/10/06 12:11:42;;;;;;;7.35;2.72;;;;;;;21.11;72.50;100131.19;4303944;81;21043;-87
2022/10/06 12:18:12;;;;;;;5.62;2.70;;;;;;;20.90;72.99;100128.64;4324953;81;21578;-87
2022/10/06 12:24:44;;;;;;;5.85;2.52;;;;;;;20.77;73.08;100138.14;4292801;81;21010;-84
2022/10/06 12:31:12;;;;;;;4.70;2.58;;;;;;;20.57;72.45;100139.97;4314931;81;20998;-85
2022/10/06 12:37:30;;;;;;;5.45;2.77;;;;;;;20.50;72.91;100149.00;4332090;81;21019;-86
2022/10/06 12:43:54;;;;;;;5.58;3.10;;;;;;;20.39;73.42;100154.64;4339192;81;21072;-84
2022/10/06 12:50:05;;;;;;;9.35;2.80;;;;;;;20.26;73.29;100151.42;4325957;80;21107;-86
2022/10/06 12:56:19;;;;;;;6.03;2.72;;;;;;;20.10;73.90;100147.77;4325822;81;20985;-85
2022/10/06 13:02:26;;;;;;;9.13;3.77;;;;;;;20.08;74.34;100151.55;4334681;81;21529;-85
2022/10/06 13:08:35;;;;;;;8.35;2.85;;;;;;;20.06;74.03;100153.97;4344286;81;20953;-85
2022/10/06 13:14:45;;;;;;;11.88;4.42;;;;;;;19.95;74.48;100140.77;4268062;81;21051;-85
2022/10/06 13:20:56;;;;;;;8.18;4.30;;;;;;;19.90;74.88;100148.14;4297871;81;21081;-85
2022/10/06 13:27:28;;;;;;;5.17;3.30;;;;;;;19.87;75.16;100149.73;4295246;82;21606;-86
2022/10/06 13:33:36;;;;;;;6.15;3.52;;;;;;;19.82;75.50;100146.03;4299859;81;21010;-85
2022/10/06 13:39:49;;;;;;;9.20;3.30;;;;;;;19.71;76.08;100146.70;4341652;81;20955;-84
2022/10/06 13:46:10;;;;;;;7.20;3.30;;;;;;;19.68;76.00;100155.06;4294082;81;21014;-84
2022/10/06 13:52:49;;;;;;;5.75;3.40;;;;;;;19.69;76.17;100156.04;4293772;82;21113;-84
2022/10/06 13:58:48;;;;;;;6.72;3.00;;;;;;;19.69;76.42;100149.69;4299833;81;21080;-85
2022/10/06 14:05:37;;;;;;;7.22;3.45;;;;;;;19.71;76.96;100164.77;4310400;80;21097;-86
2022/10/06 14:11:39;;;;;;;9.93;3.55;;;;;;;19.61;77.42;100160.06;4304080;81;22146;-85
2022/10/06 14:17:41;;;;;;;6.50;3.22;;;;;;;19.55;77.58;100168.64;4314717;81;21616;-85
2022/10/06 14:23:56;;;;;;;8.60;3.30;;;;;;;19.62;78.02;100166.42;4308452;81;21041;-85
2022/10/06 14:30:12;;;;;;;9.70;3.87;;;;;;;19.71;78.17;100169.52;4297055;81;21865;-85
2022/10/06 14:36:22;;;;;;;11.90;4.15;;;;;;;19.78;78.14;100180.59;4285507;81;21640;-85
2022/10/06 14:42:31;;;;;;;8.48;3.75;;;;;;;19.75;78.35;100190.52;4247240;83;21087;-85
2022/10/06 14:48:45;;;;;;;10.28;3.75;;;;;;;19.64;78.73;100194.55;4274784;82;21006;-84
2022/10/06 14:54:53;;;;;;;6.62;3.33;;;;;;;19.55;78.63;100201.97;4281723;82;21877;-85
2022/10/06 15:00:54;;;;;;;6.60;3.25;;;;;;;19.42;79.00;100200.84;4282635;82;21563;-84
2022/10/06 15:13:31;;;;;;;6.45;3.33;;;;;;;19.19;79.08;100209.45;4280711;81;20963;-84
2022/10/06 15:19:33;;;;;;;7.12;3.02;;;;;;;18.96;79.95;100209.95;4303249;82;21047;-84
2022/10/06 15:39:17;;;;;;;7.85;3.70;;;;;;;18.48;81.14;100226.89;4302565;82;21002;-84
2022/10/06 15:45:20;;;;;;;9.48;4.05;;;;;;;18.39;81.66;100232.86;4319779;81;21016;-85
2022/10/06 15:51:47;;;;;;;6.67;3.52;;;;;;;18.30;82.36;100233.03;4314022;80;21447;-84
2022/10/06 15:57:40;;;;;;;11.57;4.28;;;;;;;18.27;82.73;100242.14;4257019;81;21037;-87
2022/10/06 16:03:43;;;;;;;11.53;4.47;;;;;;;18.23;83.14;100247.67;4287806;82;20940;-84
2022/10/06 16:09:49;;;;;;;7.22;4.20;;;;;;;18.12;83.72;100245.50;4313175;81;20971;-84
2022/10/06 16:15:58;;;;;;;13.18;5.42;;;;;;;18.06;84.26;100249.85;4305047;81;21966;-84
2022/10/06 16:22:00;;;;;;;13.62;5.28;;;;;;;17.84;84.38;100254.36;4322822;81;21513;-85
2022/10/06 16:28:01;;;;;;;13.03;6.65;;;;;;;17.63;85.15;100263.44;4316496;81;21057;-84
2022/10/06 16:34:03;;;;;;;11.50;6.00;;;;;;;17.55;85.60;100268.75;4342565;81;21053;-84
2022/10/06 16:40:07;;;;;;;9.88;5.85;;;;;;;17.53;86.05;100271.11;4320666;81;21018;-84
2022/10/06 16:46:21;;;;;;;15.43;6.70;;;;;;;17.46;86.38;100282.75;4105396;82;10000412;-85
2022/10/06 16:52:23;;;;;;;14.20;6.37;;;;;;;17.42;86.94;100288.83;4318694;81;20946;-84
2022/10/06 16:58:24;;;;;;;13.32;6.40;;;;;;;17.28;87.33;100305.37;4336827;81;21506;-84
2022/10/06 17:04:26;;;;;;;11.43;6.30;;;;;;;17.19;87.77;100312.66;4315463;81;21017;-90
2022/10/06 17:10:27;;;;;;;13.38;7.17;;;;;;;17.08;88.47;100320.91;4319342;81;21050;-84
2022/10/06 17:16:35;;;;;;;13.35;6.28;;;;;;;16.91;88.77;100321.56;4182030;83;21481;-84
2022/10/06 17:22:43;;;;;;;9.60;6.50;;;;;;;16.75;89.26;100329.95;4376880;81;21009;-84
2022/10/06 17:28:51;;;;;;;12.45;7.85;;;;;;;16.42;89.94;100336.95;4327562;81;21022;-85
2022/10/06 17:34:54;;;;;;;16.48;7.97;;;;;;;16.23;90.36;100350.41;4334443;80;21405;-86
2022/10/06 17:40:58;;;;;;;15.93;9.05;;;;;;;16.04;91.34;100365.78;4334767;81;21022;-85
2022/10/06 17:47:09;;;;;;;17.77;9.08;;;;;;;15.99;91.51;100373.63;4329844;81;21052;-85
2022/10/06 17:53:10;;;;;;;14.93;8.33;;;;;;;15.79;92.33;100369.43;4240332;83;21025;-85
2022/10/06 17:59:23;;;;;;;15.15;9.93;;;;;;;15.83;93.19;100384.09;4261026;83;21897;-84
2022/10/06 18:05:30;;;;;;;17.35;8.78;;;;;;;15.74;93.00;100383.59;4327727;81;20989;-85
2022/10/06 18:11:46;;;;;;;;;;;;;;;;;;;;;
2022/10/06 18:18:03;;;;;;;13.55;7.60;;;;;;;15.56;94.33;100380.60;4305068;81;21002;-85
2022/10/06 18:24:18;;;;;;;12.80;7.50;;;;;;;15.61;94.68;100385.19;4347525;82;20989;-84
2022/10/06 18:30:19;;;;;;;18.77;8.15;;;;;;;15.58;95.01;100396.21;4313305;81;21022;-87
2022/10/06 18:36:22;;;;;;;16.65;8.03;;;;;;;15.54;95.07;100405.02;4286914;81;20990;-84
2022/10/06 18:42:24;;;;;;;14.03;8.90;;;;;;;15.46;95.56;100412.41;4293445;81;20994;-85
2022/10/06 18:54:47;;;;;;;12.82;8.70;;;;;;;15.44;96.28;100418.88;4331804;81;20981;-85
2022/10/06 19:00:49;;;;;;;14.98;10.00;;;;;;;15.41;96.82;100427.90;4304856;80;20994;-85
2022/10/06 19:06:53;;;;;;;15.28;9.98;;;;;;;15.40;97.17;100439.31;4297722;81;21004;-84
2022/10/06 19:12:57;;;;;;;17.37;10.25;;;;;;;15.39;97.50;100436.34;4294795;82;21881;-85
2022/10/06 19:18:58;;;;;;;17.67;9.03;;;;;;;15.39;97.80;100441.27;4299058;81;20955;-85
2022/10/06 19:24:59;;;;;;;18.60;9.05;;;;;;;15.39;98.05;100443.25;4299987;81;21029;-85
2022/10/06 19:31:06;;;;;;;18.05;11.55;;;;;;;15.35;98.21;100458.33;4298855;81;21117;-86
2022/10/06 19:37:08;;;;;;;19.17;12.25;;;;;;;15.22;98.15;100458.31;4301255;81;20986;-85
2022/10/06 19:43:10;;;;;;;24.43;13.70;;;;;;;15.14;98.71;100466.87;4304286;81;21790;-84
2022/10/06 19:49:17;;;;;;;18.30;11.33;;;;;;;15.11;98.94;100473.12;4180023;81;10000083;-83
2022/10/06 19:55:21;;;;;;;;;;;;;;;15.04;99.16;100475.75;4337560;81;21033;-84
2022/10/06 20:01:27;;;;;;;21.30;13.68;;;;;;;14.85;99.30;100486.84;4296205;82;20143;-85
2022/10/06 20:07:28;;;;;;;19.77;11.83;;;;;;;14.75;99.88;100495.74;4295467;81;20982;-84
2022/10/06 20:13:33;;;;;;;18.10;12.60;;;;;;;14.71;100.00;100496.24;4295650;81;20956;-85
2022/10/06 20:19:34;;;;;;;21.02;13.13;;;;;;;14.64;100.00;100504.39;4301118;81;20970;-86
2022/10/06 20:25:36;;;;;;;20.50;11.03;;;;;;;14.64;100.00;100500.27;4301316;81;21006;-84
2022/10/06 20:31:41;;;;;;;19.65;11.12;;;;;;;14.62;100.00;100512.22;4290956;81;20990;-88
2022/10/06 20:37:43;;;;;;;19.45;11.73;;;;;;;14.54;100.00;100527.02;4338111;81;21029;-85
2022/10/06 20:43:56;;;;;;;24.10;13.10;;;;;;;14.45;100.00;100535.53;4300000;81;21037;-85
2022/10/06 20:49:57;;;;;;;20.75;13.88;;;;;;;14.35;100.00;100533.34;4338137;81;20985;-85
2022/10/06 20:56:00;;;;;;;20.10;14.03;;;;;;;14.33;100.00;100534.28;4300514;81;22008;-85
2022/10/06 21:02:02;;;;;;;25.48;15.43;;;;;;;14.32;100.00;100542.91;4327606;81;21553;-84
2022/10/06 21:08:03;;;;;;;19.75;13.88;;;;;;;14.24;100.00;100540.59;4305185;81;21041;-85
2022/10/06 21:14:10;;;;;;;21.57;12.43;;;;;;;14.19;100.00;100548.54;4309513;81;20999;-85
2022/10/06 21:20:12;;;;;;;22.35;13.30;;;;;;;14.15;100.00;100550.44;4300623;81;21466;-86
2022/10/06 21:26:19;;;;;;;19.70;11.28;;;;;;;14.12;100.00;100546.22;4310521;80;21518;-85
2022/10/06 21:32:25;;;;;;;13.68;10.25;;;;;;;14.08;100.00;100543.38;4297045;81;21124;-86
2022/10/06 21:38:28;;;;;;;17.20;10.82;;;;;;;14.04;100.00;100549.97;4261566;81;21033;-86
2022/10/06 21:44:30;;;;;;;18.95;9.63;;;;;;;14.06;100.00;100556.70;4257653;81;21049;-85
2022/10/06 21:50:31;;;;;;;19.65;11.12;;;;;;;13.92;100.00;100557.77;4254965;82;20998;-84
2022/10/06 21:56:33;;;;;;;15.98;11.00;;;;;;;13.93;100.00;100553.08;4277351;82;21002;-86
2022/10/06 22:02:37;;;;;;;15.85;11.57;;;;;;;13.86;100.00;100556.46;4281634;82;21459;-85
2022/10/06 22:08:39;;;;;;;20.10;11.10;;;;;;;13.80;100.00;100559.84;4258407;81;21045;-85
2022/10/06 22:14:40;;;;;;;18.70;12.43;;;;;;;13.67;100.00;100552.28;4264934;82;21073;-85
2022/10/06 22:20:41;;;;;;;21.02;12.47;;;;;;;13.71;100.00;100551.80;4237478;82;21038;-88
2022/10/06 22:26:43;;;;;;;18.55;12.28;;;;;;;13.71;100.00;100551.00;4255445;81;21002;-84
2022/10/06 22:32:45;;;;;;;21.57;11.43;;;;;;;13.52;100.00;100561.37;4225066;82;21077;-84
2022/10/06 22:38:47;;;;;;;19.65;10.88;;;;;;;13.55;100.00;100564.78;4171195;84;21049;-85
2022/10/06 22:44:48;;;;;;;20.30;11.97;;;;;;;13.52;100.00;100563.31;4173918;84;20983;-85
2022/10/06 22:50:51;;;;;;;15.98;11.93;;;;;;;13.44;100.00;100557.41;4171428;84;21006;-85
2022/10/06 22:56:52;;;;;;;26.55;14.10;;;;;;;13.37;100.00;100549.81;4175424;84;21530;-85
2022/10/06 23:02:54;;;;;;;23.90;16.05;;;;;;;13.31;100.00;100550.43;4181063;83;21017;-85
2022/10/06 23:08:56;;;;;;;26.48;15.63;;;;;;;13.24;100.00;100544.17;4177925;84;20991;-86
2022/10/06 23:15:03;;;;;;;21.57;15.05;;;;;;;13.15;100.00;100546.31;4176317;84;21080;-85
2022/10/06 23:27:45;;;;;;;22.98;15.28;;;;;;;12.82;100.00;100549.12;4175713;84;21060;-85
2022/10/06 23:33:50;;;;;;;18.70;14.73;;;;;;;12.70;100.00;100556.06;4229795;81;21045;-86
2022/10/06 23:39:52;;;;;;;19.77;12.40;;;;;;;12.56;100.00;100549.58;4311054;81;21033;-85
2022/10/06 23:45:53;;;;;;;20.10;15.70;;;;;;;12.35;100.00;100552.56;4315130;81;21670;-86
2022/10/06 23:51:55;;;;;;;23.02;16.62;;;;;;;12.23;100.00;100558.67;4331943;81;21470;-85
2022/10/06 23:57:56;;;;;;;31.02;17.65;;;;;;;12.04;100.00;100555.15;4313456;81;21010;-85
